sensor_id;sensor_type;location;lat;lon;timestamp;P1;durP1;ratioP1;P2;durP2;ratioP2
78308;SDS011;67566;42.022;21.356;2023-05-29T00:02:06;10.18;;;7.85;;
78308;SDS011;67566;42.022;21.356;2023-05-29T00:04:32;11.02;;;7.72;;
78308;SDS011;67566;42.022;21.356;2023-05-29T00:06:57;9.85;;;8.00;;
78308;SDS011;67566;42.022;21.356;2023-05-29T00:09:23;9.95;;;7.30;;
78308;SDS011;67566;42.022;21.356;2023-05-29T00:11:49;11.00;;;7.60;;
78308;SDS011;67566;42.022;21.356;2023-05-29T00:14:17;15.27;;;7.38;;
78308;SDS011;67566;42.022;21.356;2023-05-29T00:16:45;14.43;;;7.47;;
78308;SDS011;67566;42.022;21.356;2023-05-29T00:19:12;12.68;;;8.65;;
78308;SDS011;67566;42.022;21.356;2023-05-29T00:21:38;13.63;;;8.05;;
78308;SDS011;67566;42.022;21.356;2023-05-29T00:24:05;12.43;;;7.55;;
78308;SDS011;67566;42.022;21.356;2023-05-29T00:26:31;11.57;;;8.00;;
78308;SDS011;67566;42.022;21.356;2023-05-29T00:28:56;13.10;;;7.38;;
78308;SDS011;67566;42.022;21.356;2023-05-29T00:31:22;11.23;;;8.27;;
78308;SDS011;67566;42.022;21.356;2023-05-29T00:33:49;11.18;;;8.50;;
78308;SDS011;67566;42.022;21.356;2023-05-29T00:36:15;11.10;;;7.78;;
78308;SDS011;67566;42.022;21.356;2023-05-29T00:38:41;10.27;;;7.65;;
78308;SDS011;67566;42.022;21.356;2023-05-29T00:41:06;14.02;;;7.85;;
78308;SDS011;67566;42.022;21.356;2023-05-29T00:43:32;12.25;;;7.45;;
78308;SDS011;67566;42.022;21.356;2023-05-29T00:45:58;10.80;;;7.13;;
78308;SDS011;67566;42.022;21.356;2023-05-29T00:48:24;9.30;;;7.13;;
78308;SDS011;67566;42.022;21.356;2023-05-29T00:50:50;10.43;;;6.85;;
78308;SDS011;67566;42.022;21.356;2023-05-29T00:53:16;11.05;;;7.07;;
78308;SDS011;67566;42.022;21.356;2023-05-29T00:55:42;10.98;;;7.65;;
78308;SDS011;67566;42.022;21.356;2023-05-29T00:58:08;10.10;;;7.00;;
78308;SDS011;67566;42.022;21.356;2023-05-29T01:00:33;10.50;;;7.15;;
78308;SDS011;67566;42.022;21.356;2023-05-29T01:03:01;9.77;;;7.10;;
78308;SDS011;67566;42.022;21.356;2023-05-29T01:05:31;9.65;;;7.28;;
78308;SDS011;67566;42.022;21.356;2023-05-29T01:07:58;9.18;;;7.07;;
78308;SDS011;67566;42.022;21.356;2023-05-29T01:10:24;9.32;;;6.72;;
78308;SDS011;67566;42.022;21.356;2023-05-29T01:12:52;9.20;;;8.07;;
78308;SDS011;67566;42.022;21.356;2023-05-29T01:18:07;12.77;;;8.00;;
78308;SDS011;67566;42.022;21.356;2023-05-29T01:26:07;9.18;;;7.22;;
78308;SDS011;67566;42.022;21.356;2023-05-29T01:28:57;10.88;;;7.38;;
78308;SDS011;67566;42.022;21.356;2023-05-29T01:31:27;10.18;;;7.50;;
78308;SDS011;67566;42.022;21.356;2023-05-29T01:33:54;9.80;;;7.40;;
78308;SDS011;67566;42.022;21.356;2023-05-29T01:36:20;10.10;;;7.00;;
78308;SDS011;67566;42.022;21.356;2023-05-29T01:38:47;10.60;;;7.65;;
78308;SDS011;67566;42.022;21.356;2023-05-29T01:41:14;9.65;;;7.18;;
78308;SDS011;67566;42.022;21.356;2023-05-29T01:43:41;9.13;;;7.25;;
78308;SDS011;67566;42.022;21.356;2023-05-29T01:46:08;10.98;;;7.90;;
78308;SDS011;67566;42.022;21.356;2023-05-29T01:48:34;8.68;;;7.38;;
78308;SDS011;67566;42.022;21.356;2023-05-29T01:51:00;9.65;;;6.97;;
78308;SDS011;67566;42.022;21.356;2023-05-29T01:53:26;10.68;;;7.25;;
78308;SDS011;67566;42.022;21.356;2023-05-29T01:55:52;12.95;;;7.95;;
78308;SDS011;67566;42.022;21.356;2023-05-29T01:58:18;8.73;;;6.25;;
78308;SDS011;67566;42.022;21.356;2023-05-29T02:00:46;10.63;;;7.65;;
78308;SDS011;67566;42.022;21.356;2023-05-29T02:03:13;10.85;;;7.78;;
78308;SDS011;67566;42.022;21.356;2023-05-29T02:05:38;14.35;;;6.85;;
78308;SDS011;67566;42.022;21.356;2023-05-29T02:08:04;12.77;;;8.18;;
78308;SDS011;67566;42.022;21.356;2023-05-29T02:10:30;13.80;;;8.50;;
78308;SDS011;67566;42.022;21.356;2023-05-29T02:12:57;10.18;;;8.65;;
78308;SDS011;67566;42.022;21.356;2023-05-29T02:15:22;11.93;;;7.72;;
78308;SDS011;67566;42.022;21.356;2023-05-29T02:17:48;12.77;;;7.35;;
78308;SDS011;67566;42.022;21.356;2023-05-29T02:20:14;9.88;;;6.80;;
78308;SDS011;67566;42.022;21.356;2023-05-29T02:22:40;12.02;;;7.53;;
78308;SDS011;67566;42.022;21.356;2023-05-29T02:25:06;13.35;;;8.32;;
78308;SDS011;67566;42.022;21.356;2023-05-29T02:27:32;10.95;;;7.75;;
78308;SDS011;67566;42.022;21.356;2023-05-29T02:29:58;10.40;;;7.60;;
78308;SDS011;67566;42.022;21.356;2023-05-29T02:32:24;11.43;;;7.20;;
78308;SDS011;67566;42.022;21.356;2023-05-29T02:34:51;11.80;;;6.80;;
78308;SDS011;67566;42.022;21.356;2023-05-29T02:37:17;11.18;;;7.07;;
78308;SDS011;67566;42.022;21.356;2023-05-29T02:39:43;10.45;;;7.28;;
78308;SDS011;67566;42.022;21.356;2023-05-29T02:42:08;11.27;;;7.90;;
78308;SDS011;67566;42.022;21.356;2023-05-29T02:44:34;11.98;;;7.80;;
78308;SDS011;67566;42.022;21.356;2023-05-29T02:47:00;9.13;;;7.40;;
78308;SDS011;67566;42.022;21.356;2023-05-29T02:49:25;13.50;;;8.63;;
78308;SDS011;67566;42.022;21.356;2023-05-29T02:51:51;10.73;;;7.55;;
78308;SDS011;67566;42.022;21.356;2023-05-29T02:54:21;9.52;;;7.40;;
78308;SDS011;67566;42.022;21.356;2023-05-29T02:56:53;10.52;;;8.32;;
78308;SDS011;67566;42.022;21.356;2023-05-29T02:59:19;12.80;;;8.30;;
78308;SDS011;67566;42.022;21.356;2023-05-29T03:01:45;17.92;;;8.52;;
78308;SDS011;67566;42.022;21.356;2023-05-29T03:04:12;9.40;;;7.60;;
78308;SDS011;67566;42.022;21.356;2023-05-29T03:06:37;10.25;;;7.47;;
78308;SDS011;67566;42.022;21.356;2023-05-29T03:09:03;11.90;;;8.98;;
78308;SDS011;67566;42.022;21.356;2023-05-29T03:11:30;11.98;;;8.15;;
78308;SDS011;67566;42.022;21.356;2023-05-29T03:13:56;13.15;;;8.82;;
78308;SDS011;67566;42.022;21.356;2023-05-29T03:16:22;14.75;;;8.70;;
78308;SDS011;67566;42.022;21.356;2023-05-29T03:18:47;16.25;;;9.07;;
78308;SDS011;67566;42.022;21.356;2023-05-29T03:21:13;14.60;;;8.38;;
78308;SDS011;67566;42.022;21.356;2023-05-29T03:23:38;19.90;;;8.98;;
78308;SDS011;67566;42.022;21.356;2023-05-29T03:26:04;13.40;;;7.80;;
78308;SDS011;67566;42.022;21.356;2023-05-29T03:28:30;11.75;;;7.43;;
78308;SDS011;67566;42.022;21.356;2023-05-29T03:30:56;11.85;;;7.82;;
78308;SDS011;67566;42.022;21.356;2023-05-29T03:33:22;12.70;;;8.70;;
78308;SDS011;67566;42.022;21.356;2023-05-29T03:35:47;10.63;;;8.23;;
78308;SDS011;67566;42.022;21.356;2023-05-29T03:38:13;14.25;;;8.70;;
78308;SDS011;67566;42.022;21.356;2023-05-29T03:40:38;13.10;;;8.88;;
78308;SDS011;67566;42.022;21.356;2023-05-29T03:43:04;15.88;;;8.45;;
78308;SDS011;67566;42.022;21.356;2023-05-29T03:45:29;15.07;;;8.35;;
78308;SDS011;67566;42.022;21.356;2023-05-29T03:47:55;13.40;;;9.45;;
78308;SDS011;67566;42.022;21.356;2023-05-29T03:50:20;11.70;;;8.57;;
78308;SDS011;67566;42.022;21.356;2023-05-29T03:52:46;13.35;;;9.80;;
78308;SDS011;67566;42.022;21.356;2023-05-29T03:55:12;14.85;;;8.77;;
78308;SDS011;67566;42.022;21.356;2023-05-29T03:57:39;12.48;;;8.88;;
78308;SDS011;67566;42.022;21.356;2023-05-29T04:00:07;10.68;;;8.23;;
78308;SDS011;67566;42.022;21.356;2023-05-29T04:02:35;12.40;;;7.88;;
78308;SDS011;67566;42.022;21.356;2023-05-29T04:05:02;10.93;;;8.32;;
78308;SDS011;67566;42.022;21.356;2023-05-29T04:07:32;11.27;;;7.75;;
78308;SDS011;67566;42.022;21.356;2023-05-29T04:09:58;13.70;;;7.97;;
78308;SDS011;67566;42.022;21.356;2023-05-29T04:12:23;10.95;;;7.57;;
78308;SDS011;67566;42.022;21.356;2023-05-29T04:14:49;11.55;;;8.05;;
78308;SDS011;67566;42.022;21.356;2023-05-29T04:17:17;12.23;;;7.63;;
78308;SDS011;67566;42.022;21.356;2023-05-29T04:19:45;12.18;;;7.47;;
78308;SDS011;67566;42.022;21.356;2023-05-29T04:22:11;13.88;;;7.30;;
78308;SDS011;67566;42.022;21.356;2023-05-29T04:24:36;11.68;;;7.95;;
78308;SDS011;67566;42.022;21.356;2023-05-29T04:27:02;16.05;;;8.52;;
78308;SDS011;67566;42.022;21.356;2023-05-29T04:29:31;12.82;;;8.32;;
78308;SDS011;67566;42.022;21.356;2023-05-29T04:31:59;7.90;;;6.65;;
78308;SDS011;67566;42.022;21.356;2023-05-29T04:34:28;9.90;;;7.35;;
78308;SDS011;67566;42.022;21.356;2023-05-29T04:36:55;12.02;;;7.55;;
78308;SDS011;67566;42.022;21.356;2023-05-29T04:39:23;10.32;;;7.57;;
78308;SDS011;67566;42.022;21.356;2023-05-29T04:41:49;13.07;;;8.00;;
78308;SDS011;67566;42.022;21.356;2023-05-29T04:44:16;11.52;;;7.68;;
78308;SDS011;67566;42.022;21.356;2023-05-29T04:46:42;11.43;;;7.68;;
78308;SDS011;67566;42.022;21.356;2023-05-29T04:49:09;10.90;;;8.38;;
78308;SDS011;67566;42.022;21.356;2023-05-29T04:51:35;11.10;;;7.32;;
78308;SDS011;67566;42.022;21.356;2023-05-29T04:54:01;10.50;;;7.80;;
78308;SDS011;67566;42.022;21.356;2023-05-29T04:56:27;9.40;;;7.63;;
78308;SDS011;67566;42.022;21.356;2023-05-29T04:58:53;13.00;;;7.55;;
78308;SDS011;67566;42.022;21.356;2023-05-29T05:01:19;12.20;;;8.15;;
78308;SDS011;67566;42.022;21.356;2023-05-29T05:03:45;10.60;;;7.30;;
78308;SDS011;67566;42.022;21.356;2023-05-29T05:06:11;11.50;;;7.70;;
78308;SDS011;67566;42.022;21.356;2023-05-29T05:08:37;13.93;;;8.48;;
78308;SDS011;67566;42.022;21.356;2023-05-29T05:11:03;11.27;;;7.40;;
78308;SDS011;67566;42.022;21.356;2023-05-29T05:13:31;10.60;;;7.07;;
78308;SDS011;67566;42.022;21.356;2023-05-29T05:15:56;12.40;;;7.53;;
78308;SDS011;67566;42.022;21.356;2023-05-29T05:18:22;11.50;;;8.00;;
78308;SDS011;67566;42.022;21.356;2023-05-29T05:20:47;10.48;;;6.93;;
78308;SDS011;67566;42.022;21.356;2023-05-29T05:23:13;11.10;;;7.80;;
78308;SDS011;67566;42.022;21.356;2023-05-29T05:25:38;11.98;;;8.00;;
78308;SDS011;67566;42.022;21.356;2023-05-29T05:28:04;12.73;;;7.75;;
78308;SDS011;67566;42.022;21.356;2023-05-29T05:30:30;13.25;;;8.18;;
78308;SDS011;67566;42.022;21.356;2023-05-29T05:32:56;11.52;;;7.60;;
78308;SDS011;67566;42.022;21.356;2023-05-29T05:35:23;9.63;;;6.57;;
78308;SDS011;67566;42.022;21.356;2023-05-29T05:37:48;14.68;;;8.05;;
78308;SDS011;67566;42.022;21.356;2023-05-29T05:40:14;13.60;;;8.25;;
78308;SDS011;67566;42.022;21.356;2023-05-29T05:42:39;11.90;;;6.72;;
78308;SDS011;67566;42.022;21.356;2023-05-29T05:45:05;11.00;;;7.88;;
78308;SDS011;67566;42.022;21.356;2023-05-29T05:47:32;12.45;;;7.85;;
78308;SDS011;67566;42.022;21.356;2023-05-29T05:49:58;15.68;;;8.77;;
78308;SDS011;67566;42.022;21.356;2023-05-29T05:52:23;10.00;;;5.68;;
78308;SDS011;67566;42.022;21.356;2023-05-29T05:54:50;11.10;;;6.22;;
78308;SDS011;67566;42.022;21.356;2023-05-29T05:57:16;10.27;;;6.70;;
78308;SDS011;67566;42.022;21.356;2023-05-29T05:59:42;10.02;;;6.88;;
78308;SDS011;67566;42.022;21.356;2023-05-29T06:02:08;12.25;;;7.13;;
78308;SDS011;67566;42.022;21.356;2023-05-29T06:04:34;9.45;;;7.80;;
78308;SDS011;67566;42.022;21.356;2023-05-29T06:07:00;14.13;;;7.72;;
78308;SDS011;67566;42.022;21.356;2023-05-29T06:09:26;11.77;;;8.00;;
78308;SDS011;67566;42.022;21.356;2023-05-29T06:11:51;14.10;;;7.38;;
78308;SDS011;67566;42.022;21.356;2023-05-29T06:14:17;14.55;;;7.78;;
78308;SDS011;67566;42.022;21.356;2023-05-29T06:16:42;12.07;;;7.57;;
78308;SDS011;67566;42.022;21.356;2023-05-29T06:19:08;9.68;;;6.90;;
78308;SDS011;67566;42.022;21.356;2023-05-29T06:21:34;11.85;;;7.43;;
78308;SDS011;67566;42.022;21.356;2023-05-29T06:24:00;15.43;;;7.50;;
78308;SDS011;67566;42.022;21.356;2023-05-29T06:26:25;11.93;;;7.65;;
78308;SDS011;67566;42.022;21.356;2023-05-29T06:28:51;10.95;;;7.15;;
78308;SDS011;67566;42.022;21.356;2023-05-29T06:31:18;10.13;;;7.00;;
78308;SDS011;67566;42.022;21.356;2023-05-29T06:33:44;11.70;;;6.93;;
78308;SDS011;67566;42.022;21.356;2023-05-29T06:36:10;11.77;;;7.47;;
78308;SDS011;67566;42.022;21.356;2023-05-29T06:38:36;13.63;;;6.43;;
78308;SDS011;67566;42.022;21.356;2023-05-29T06:41:01;10.35;;;5.82;;
78308;SDS011;67566;42.022;21.356;2023-05-29T06:43:27;11.57;;;7.43;;
78308;SDS011;67566;42.022;21.356;2023-05-29T06:45:53;8.43;;;6.57;;
78308;SDS011;67566;42.022;21.356;2023-05-29T06:48:19;8.65;;;6.13;;
78308;SDS011;67566;42.022;21.356;2023-05-29T06:50:46;9.80;;;6.65;;
78308;SDS011;67566;42.022;21.356;2023-05-29T06:53:12;9.52;;;6.07;;
78308;SDS011;67566;42.022;21.356;2023-05-29T06:55:38;12.57;;;6.60;;
78308;SDS011;67566;42.022;21.356;2023-05-29T06:58:05;10.27;;;6.38;;
78308;SDS011;67566;42.022;21.356;2023-05-29T07:00:31;8.70;;;5.63;;
78308;SDS011;67566;42.022;21.356;2023-05-29T07:02:57;8.98;;;5.82;;
78308;SDS011;67566;42.022;21.356;2023-05-29T07:05:22;10.65;;;6.35;;
78308;SDS011;67566;42.022;21.356;2023-05-29T07:07:48;12.05;;;6.65;;
78308;SDS011;67566;42.022;21.356;2023-05-29T07:10:13;10.55;;;6.90;;
78308;SDS011;67566;42.022;21.356;2023-05-29T07:12:39;8.20;;;5.80;;
78308;SDS011;67566;42.022;21.356;2023-05-29T07:15:05;12.85;;;5.70;;
78308;SDS011;67566;42.022;21.356;2023-05-29T07:17:30;10.15;;;5.72;;
78308;SDS011;67566;42.022;21.356;2023-05-29T07:19:56;9.25;;;5.88;;
78308;SDS011;67566;42.022;21.356;2023-05-29T07:22:21;12.23;;;6.13;;
78308;SDS011;67566;42.022;21.356;2023-05-29T07:24:47;8.90;;;5.80;;
78308;SDS011;67566;42.022;21.356;2023-05-29T07:27:12;7.85;;;5.47;;
78308;SDS011;67566;42.022;21.356;2023-05-29T07:29:38;12.65;;;6.25;;
78308;SDS011;67566;42.022;21.356;2023-05-29T07:32:03;12.10;;;6.85;;
78308;SDS011;67566;42.022;21.356;2023-05-29T07:34:29;11.70;;;6.95;;
78308;SDS011;67566;42.022;21.356;2023-05-29T07:36:59;8.35;;;5.88;;
78308;SDS011;67566;42.022;21.356;2023-05-29T07:39:26;9.70;;;5.60;;
78308;SDS011;67566;42.022;21.356;2023-05-29T07:41:52;7.00;;;5.35;;
78308;SDS011;67566;42.022;21.356;2023-05-29T07:44:18;8.45;;;4.78;;
78308;SDS011;67566;42.022;21.356;2023-05-29T07:46:44;11.15;;;5.68;;
78308;SDS011;67566;42.022;21.356;2023-05-29T07:49:10;7.78;;;5.72;;
78308;SDS011;67566;42.022;21.356;2023-05-29T07:51:35;6.75;;;5.10;;
78308;SDS011;67566;42.022;21.356;2023-05-29T07:54:02;7.07;;;5.18;;
78308;SDS011;67566;42.022;21.356;2023-05-29T07:56:27;7.70;;;5.40;;
78308;SDS011;67566;42.022;21.356;2023-05-29T07:58:53;8.02;;;5.05;;
78308;SDS011;67566;42.022;21.356;2023-05-29T08:01:20;8.30;;;5.18;;
78308;SDS011;67566;42.022;21.356;2023-05-29T08:03:49;8.18;;;5.65;;
78308;SDS011;67566;42.022;21.356;2023-05-29T08:06:14;11.15;;;5.53;;
78308;SDS011;67566;42.022;21.356;2023-05-29T08:08:40;10.82;;;5.32;;
78308;SDS011;67566;42.022;21.356;2023-05-29T08:11:06;8.05;;;5.28;;
78308;SDS011;67566;42.022;21.356;2023-05-29T08:13:31;8.48;;;5.55;;
78308;SDS011;67566;42.022;21.356;2023-05-29T08:15:57;9.65;;;5.63;;
78308;SDS011;67566;42.022;21.356;2023-05-29T08:18:24;7.40;;;5.03;;
78308;SDS011;67566;42.022;21.356;2023-05-29T08:20:50;8.23;;;5.65;;
78308;SDS011;67566;42.022;21.356;2023-05-29T08:23:17;9.40;;;5.47;;
78308;SDS011;67566;42.022;21.356;2023-05-29T08:25:43;8.30;;;5.35;;
78308;SDS011;67566;42.022;21.356;2023-05-29T08:28:09;8.20;;;5.20;;
78308;SDS011;67566;42.022;21.356;2023-05-29T08:30:34;9.88;;;5.32;;
78308;SDS011;67566;42.022;21.356;2023-05-29T08:33:00;6.28;;;5.28;;
78308;SDS011;67566;42.022;21.356;2023-05-29T08:35:25;9.50;;;5.32;;
78308;SDS011;67566;42.022;21.356;2023-05-29T08:37:51;8.73;;;5.88;;
78308;SDS011;67566;42.022;21.356;2023-05-29T08:40:17;7.60;;;5.95;;
78308;SDS011;67566;42.022;21.356;2023-05-29T08:42:45;7.10;;;5.20;;
78308;SDS011;67566;42.022;21.356;2023-05-29T08:45:13;6.00;;;4.53;;
78308;SDS011;67566;42.022;21.356;2023-05-29T08:47:39;11.20;;;5.10;;
78308;SDS011;67566;42.022;21.356;2023-05-29T08:50:06;8.05;;;4.95;;
78308;SDS011;67566;42.022;21.356;2023-05-29T08:52:33;7.13;;;4.53;;
78308;SDS011;67566;42.022;21.356;2023-05-29T08:55:03;7.00;;;4.60;;
78308;SDS011;67566;42.022;21.356;2023-05-29T08:57:30;5.75;;;4.25;;
78308;SDS011;67566;42.022;21.356;2023-05-29T08:59:56;6.75;;;4.60;;
78308;SDS011;67566;42.022;21.356;2023-05-29T09:02:22;5.97;;;4.85;;
78308;SDS011;67566;42.022;21.356;2023-05-29T09:04:48;7.45;;;4.35;;
78308;SDS011;67566;42.022;21.356;2023-05-29T09:07:21;6.70;;;4.55;;
78308;SDS011;67566;42.022;21.356;2023-05-29T09:09:47;6.03;;;4.30;;
78308;SDS011;67566;42.022;21.356;2023-05-29T09:12:16;7.53;;;4.32;;
78308;SDS011;67566;42.022;21.356;2023-05-29T09:14:44;6.55;;;4.40;;
78308;SDS011;67566;42.022;21.356;2023-05-29T09:17:11;5.90;;;4.20;;
78308;SDS011;67566;42.022;21.356;2023-05-29T09:19:37;5.50;;;4.30;;
78308;SDS011;67566;42.022;21.356;2023-05-29T09:22:09;5.90;;;4.03;;
78308;SDS011;67566;42.022;21.356;2023-05-29T09:24:38;5.45;;;4.20;;
78308;SDS011;67566;42.022;21.356;2023-05-29T09:27:04;7.60;;;4.82;;
78308;SDS011;67566;42.022;21.356;2023-05-29T09:29:33;7.03;;;5.05;;
78308;SDS011;67566;42.022;21.356;2023-05-29T09:32:18;6.30;;;4.20;;
78308;SDS011;67566;42.022;21.356;2023-05-29T09:34:44;5.90;;;4.18;;
78308;SDS011;67566;42.022;21.356;2023-05-29T09:37:10;7.05;;;4.78;;
78308;SDS011;67566;42.022;21.356;2023-05-29T09:39:49;5.30;;;3.85;;
78308;SDS011;67566;42.022;21.356;2023-05-29T09:42:18;6.10;;;4.03;;
78308;SDS011;67566;42.022;21.356;2023-05-29T09:44:53;6.25;;;4.13;;
78308;SDS011;67566;42.022;21.356;2023-05-29T09:47:19;6.95;;;4.40;;
78308;SDS011;67566;42.022;21.356;2023-05-29T09:49:47;5.03;;;3.85;;
78308;SDS011;67566;42.022;21.356;2023-05-29T09:52:13;6.13;;;3.25;;
78308;SDS011;67566;42.022;21.356;2023-05-29T09:54:43;4.90;;;3.40;;
78308;SDS011;67566;42.022;21.356;2023-05-29T09:57:13;6.03;;;3.83;;
78308;SDS011;67566;42.022;21.356;2023-05-29T09:59:44;5.85;;;3.67;;
78308;SDS011;67566;42.022;21.356;2023-05-29T10:02:11;5.72;;;4.28;;
78308;SDS011;67566;42.022;21.356;2023-05-29T10:04:39;4.43;;;3.42;;
78308;SDS011;67566;42.022;21.356;2023-05-29T10:07:27;6.32;;;3.75;;
78308;SDS011;67566;42.022;21.356;2023-05-29T10:12:26;7.28;;;3.88;;
78308;SDS011;67566;42.022;21.356;2023-05-29T10:14:56;4.25;;;3.55;;
78308;SDS011;67566;42.022;21.356;2023-05-29T10:17:25;6.53;;;3.50;;
78308;SDS011;67566;42.022;21.356;2023-05-29T10:19:56;4.25;;;3.40;;
78308;SDS011;67566;42.022;21.356;2023-05-29T10:22:25;4.95;;;4.05;;
78308;SDS011;67566;42.022;21.356;2023-05-29T10:24:53;5.93;;;3.40;;
78308;SDS011;67566;42.022;21.356;2023-05-29T10:27:20;4.50;;;3.13;;
78308;SDS011;67566;42.022;21.356;2023-05-29T10:38:44;6.03;;;3.78;;
78308;SDS011;67566;42.022;21.356;2023-05-29T10:43:58;6.00;;;3.47;;
78308;SDS011;67566;42.022;21.356;2023-05-29T10:49:16;7.00;;;2.75;;
78308;SDS011;67566;42.022;21.356;2023-05-29T10:51:42;8.65;;;3.70;;
78308;SDS011;67566;42.022;21.356;2023-05-29T10:54:08;9.43;;;4.22;;
78308;SDS011;67566;42.022;21.356;2023-05-29T10:56:34;6.88;;;3.47;;
78308;SDS011;67566;42.022;21.356;2023-05-29T10:59:00;5.28;;;3.65;;
78308;SDS011;67566;42.022;21.356;2023-05-29T11:01:27;4.90;;;3.40;;
78308;SDS011;67566;42.022;21.356;2023-05-29T11:06:51;6.15;;;3.35;;
78308;SDS011;67566;42.022;21.356;2023-05-29T11:09:26;6.50;;;3.40;;
78308;SDS011;67566;42.022;21.356;2023-05-29T11:12:14;5.75;;;3.53;;
78308;SDS011;67566;42.022;21.356;2023-05-29T11:15:08;6.82;;;3.20;;
78308;SDS011;67566;42.022;21.356;2023-05-29T11:20:07;6.78;;;3.28;;
78308;SDS011;67566;42.022;21.356;2023-05-29T11:25:25;6.50;;;3.75;;
78308;SDS011;67566;42.022;21.356;2023-05-29T11:27:51;7.47;;;3.70;;
78308;SDS011;67566;42.022;21.356;2023-05-29T11:30:17;5.35;;;3.72;;
78308;SDS011;67566;42.022;21.356;2023-05-29T11:32:44;4.68;;;3.17;;
78308;SDS011;67566;42.022;21.356;2023-05-29T11:35:11;5.80;;;3.33;;
78308;SDS011;67566;42.022;21.356;2023-05-29T11:37:39;3.92;;;3.00;;
78308;SDS011;67566;42.022;21.356;2023-05-29T11:40:10;6.10;;;3.63;;
78308;SDS011;67566;42.022;21.356;2023-05-29T11:42:43;6.07;;;3.47;;
78308;SDS011;67566;42.022;21.356;2023-05-29T11:45:14;5.75;;;3.78;;
78308;SDS011;67566;42.022;21.356;2023-05-29T11:47:59;5.20;;;3.60;;
78308;SDS011;67566;42.022;21.356;2023-05-29T11:50:27;5.20;;;3.58;;
78308;SDS011;67566;42.022;21.356;2023-05-29T11:52:55;5.30;;;3.05;;
78308;SDS011;67566;42.022;21.356;2023-05-29T11:55:22;5.53;;;3.65;;
78308;SDS011;67566;42.022;21.356;2023-05-29T11:57:51;4.30;;;3.40;;
78308;SDS011;67566;42.022;21.356;2023-05-29T12:00:21;5.80;;;3.47;;
78308;SDS011;67566;42.022;21.356;2023-05-29T12:02:47;5.15;;;3.45;;
78308;SDS011;67566;42.022;21.356;2023-05-29T12:05:14;5.90;;;2.83;;
78308;SDS011;67566;42.022;21.356;2023-05-29T12:07:48;5.15;;;2.97;;
78308;SDS011;67566;42.022;21.356;2023-05-29T12:10:17;5.07;;;3.17;;
78308;SDS011;67566;42.022;21.356;2023-05-29T12:12:51;4.97;;;3.22;;
78308;SDS011;67566;42.022;21.356;2023-05-29T12:15:24;4.30;;;3.35;;
78308;SDS011;67566;42.022;21.356;2023-05-29T12:17:50;5.75;;;3.08;;
78308;SDS011;67566;42.022;21.356;2023-05-29T12:20:21;4.72;;;2.65;;
78308;SDS011;67566;42.022;21.356;2023-05-29T12:25:17;5.30;;;3.30;;
78308;SDS011;67566;42.022;21.356;2023-05-29T12:27:45;5.82;;;3.08;;
78308;SDS011;67566;42.022;21.356;2023-05-29T12:30:13;4.22;;;3.00;;
78308;SDS011;67566;42.022;21.356;2023-05-29T12:32:46;4.30;;;2.92;;
78308;SDS011;67566;42.022;21.356;2023-05-29T12:35:17;5.68;;;3.17;;
78308;SDS011;67566;42.022;21.356;2023-05-29T12:42:41;5.43;;;2.90;;
78308;SDS011;67566;42.022;21.356;2023-05-29T12:45:07;5.82;;;3.10;;
78308;SDS011;67566;42.022;21.356;2023-05-29T12:47:35;9.13;;;3.45;;
78308;SDS011;67566;42.022;21.356;2023-05-29T12:50:04;7.28;;;3.25;;
78308;SDS011;67566;42.022;21.356;2023-05-29T12:53:00;4.72;;;3.10;;
78308;SDS011;67566;42.022;21.356;2023-05-29T12:55:28;5.07;;;2.90;;
78308;SDS011;67566;42.022;21.356;2023-05-29T12:57:55;5.25;;;3.05;;
78308;SDS011;67566;42.022;21.356;2023-05-29T13:00:21;5.03;;;3.33;;
78308;SDS011;67566;42.022;21.356;2023-05-29T13:02:48;5.40;;;3.35;;
78308;SDS011;67566;42.022;21.356;2023-05-29T13:05:14;5.35;;;2.95;;
78308;SDS011;67566;42.022;21.356;2023-05-29T13:07:44;6.13;;;3.15;;
78308;SDS011;67566;42.022;21.356;2023-05-29T13:10:12;5.57;;;3.05;;
78308;SDS011;67566;42.022;21.356;2023-05-29T13:12:37;7.22;;;2.70;;
78308;SDS011;67566;42.022;21.356;2023-05-29T13:15:03;6.03;;;2.78;;
78308;SDS011;67566;42.022;21.356;2023-05-29T13:17:29;5.50;;;2.42;;
78308;SDS011;67566;42.022;21.356;2023-05-29T13:19:55;5.85;;;2.78;;
78308;SDS011;67566;42.022;21.356;2023-05-29T13:22:20;3.63;;;2.40;;
78308;SDS011;67566;42.022;21.356;2023-05-29T13:24:45;5.47;;;2.47;;
78308;SDS011;67566;42.022;21.356;2023-05-29T13:27:11;3.78;;;2.17;;
78308;SDS011;67566;42.022;21.356;2023-05-29T13:29:39;3.40;;;2.05;;
78308;SDS011;67566;42.022;21.356;2023-05-29T13:32:06;2.95;;;2.05;;
78308;SDS011;67566;42.022;21.356;2023-05-29T13:34:31;6.10;;;2.60;;
78308;SDS011;67566;42.022;21.356;2023-05-29T13:36:57;5.05;;;2.70;;
78308;SDS011;67566;42.022;21.356;2023-05-29T13:39:23;4.97;;;2.38;;
78308;SDS011;67566;42.022;21.356;2023-05-29T13:41:50;5.70;;;2.50;;
78308;SDS011;67566;42.022;21.356;2023-05-29T13:44:15;4.35;;;2.55;;
78308;SDS011;67566;42.022;21.356;2023-05-29T13:46:41;6.35;;;3.15;;
78308;SDS011;67566;42.022;21.356;2023-05-29T13:49:07;5.30;;;3.38;;
78308;SDS011;67566;42.022;21.356;2023-05-29T13:51:33;5.22;;;3.35;;
78308;SDS011;67566;42.022;21.356;2023-05-29T13:53:59;4.15;;;2.72;;
78308;SDS011;67566;42.022;21.356;2023-05-29T13:56:24;4.68;;;3.13;;
78308;SDS011;67566;42.022;21.356;2023-05-29T13:58:52;6.18;;;2.80;;
78308;SDS011;67566;42.022;21.356;2023-05-29T14:01:17;6.57;;;3.10;;
78308;SDS011;67566;42.022;21.356;2023-05-29T14:03:44;5.57;;;2.75;;
78308;SDS011;67566;42.022;21.356;2023-05-29T14:06:10;6.15;;;2.83;;
78308;SDS011;67566;42.022;21.356;2023-05-29T14:08:36;5.68;;;3.25;;
78308;SDS011;67566;42.022;21.356;2023-05-29T14:11:02;5.43;;;2.67;;
78308;SDS011;67566;42.022;21.356;2023-05-29T14:13:27;4.63;;;2.78;;
78308;SDS011;67566;42.022;21.356;2023-05-29T14:15:53;4.60;;;2.63;;
78308;SDS011;67566;42.022;21.356;2023-05-29T14:18:21;4.60;;;2.72;;
78308;SDS011;67566;42.022;21.356;2023-05-29T14:20:46;6.25;;;3.25;;
78308;SDS011;67566;42.022;21.356;2023-05-29T14:23:13;6.20;;;2.40;;
78308;SDS011;67566;42.022;21.356;2023-05-29T14:25:41;5.30;;;2.60;;
78308;SDS011;67566;42.022;21.356;2023-05-29T14:28:07;4.13;;;2.58;;
78308;SDS011;67566;42.022;21.356;2023-05-29T14:30:32;5.65;;;2.85;;
78308;SDS011;67566;42.022;21.356;2023-05-29T14:32:58;2.92;;;1.98;;
78308;SDS011;67566;42.022;21.356;2023-05-29T14:35:23;3.45;;;1.95;;
78308;SDS011;67566;42.022;21.356;2023-05-29T14:37:50;5.13;;;2.35;;
78308;SDS011;67566;42.022;21.356;2023-05-29T14:40:15;4.20;;;2.20;;
78308;SDS011;67566;42.022;21.356;2023-05-29T14:42:43;7.80;;;2.40;;
78308;SDS011;67566;42.022;21.356;2023-05-29T14:45:10;4.28;;;2.22;;
78308;SDS011;67566;42.022;21.356;2023-05-29T14:47:35;6.25;;;2.60;;
78308;SDS011;67566;42.022;21.356;2023-05-29T14:50:01;4.57;;;2.22;;
78308;SDS011;67566;42.022;21.356;2023-05-29T14:52:26;3.67;;;2.28;;
78308;SDS011;67566;42.022;21.356;2023-05-29T14:54:52;5.20;;;2.42;;
78308;SDS011;67566;42.022;21.356;2023-05-29T14:57:18;3.88;;;2.60;;
78308;SDS011;67566;42.022;21.356;2023-05-29T14:59:43;4.55;;;2.50;;
78308;SDS011;67566;42.022;21.356;2023-05-29T15:02:09;6.20;;;2.95;;
78308;SDS011;67566;42.022;21.356;2023-05-29T15:04:35;4.60;;;2.38;;
78308;SDS011;67566;42.022;21.356;2023-05-29T15:07:01;7.72;;;2.70;;
78308;SDS011;67566;42.022;21.356;2023-05-29T15:09:27;5.70;;;2.50;;